sensor_id;sensor_type;location;lat;lon;timestamp;P1;durP1;ratioP1;P2;durP2;ratioP2
18082;SDS011;9168;51.194;6.840;2022-12-29T00:00:09;2.70;;;1.30;;
18082;SDS011;9168;51.194;6.840;2022-12-29T00:02:37;6.28;;;1.48;;
18082;SDS011;9168;51.194;6.840;2022-12-29T00:05:04;8.50;;;1.88;;
18082;SDS011;9168;51.194;6.840;2022-12-29T00:07:33;4.38;;;1.25;;
18082;SDS011;9168;51.194;6.840;2022-12-29T00:10:00;7.15;;;1.40;;
18082;SDS011;9168;51.194;6.840;2022-12-29T00:12:27;3.42;;;1.30;;
18082;SDS011;9168;51.194;6.840;2022-12-29T00:15:14;4.05;;;0.80;;
18082;SDS011;9168;51.194;6.840;2022-12-29T00:17:59;3.95;;;0.90;;
18082;SDS011;9168;51.194;6.840;2022-12-29T00:20:26;1.27;;;0.88;;
18082;SDS011;9168;51.194;6.840;2022-12-29T00:23:12;2.17;;;1.20;;
18082;SDS011;9168;51.194;6.840;2022-12-29T00:25:56;2.63;;;0.85;;
18082;SDS011;9168;51.194;6.840;2022-12-29T00:28:40;4.20;;;1.27;;
18082;SDS011;9168;51.194;6.840;2022-12-29T00:31:24;3.25;;;1.30;;
18082;SDS011;9168;51.194;6.840;2022-12-29T00:34:10;3.25;;;1.30;;
18082;SDS011;9168;51.194;6.840;2022-12-29T00:36:55;1.63;;;1.00;;
18082;SDS011;9168;51.194;6.840;2022-12-29T00:39:24;3.60;;;1.50;;
18082;SDS011;9168;51.194;6.840;2022-12-29T00:42:08;2.85;;;1.30;;
18082;SDS011;9168;51.194;6.840;2022-12-29T00:44:53;5.28;;;1.27;;
18082;SDS011;9168;51.194;6.840;2022-12-29T00:47:20;6.57;;;2.05;;
18082;SDS011;9168;51.194;6.840;2022-12-29T00:49:47;7.18;;;1.33;;
18082;SDS011;9168;51.194;6.840;2022-12-29T00:52:13;2.38;;;1.15;;
18082;SDS011;9168;51.194;6.840;2022-12-29T00:54:41;3.88;;;1.65;;
18082;SDS011;9168;51.194;6.840;2022-12-29T00:57:10;4.85;;;1.70;;
18082;SDS011;9168;51.194;6.840;2022-12-29T00:59:38;3.30;;;1.63;;
18082;SDS011;9168;51.194;6.840;2022-12-29T01:02:07;5.47;;;1.85;;
18082;SDS011;9168;51.194;6.840;2022-12-29T01:04:34;4.57;;;1.13;;
18082;SDS011;9168;51.194;6.840;2022-12-29T01:07:02;2.83;;;1.00;;
18082;SDS011;9168;51.194;6.840;2022-12-29T01:09:29;4.57;;;1.30;;
18082;SDS011;9168;51.194;6.840;2022-12-29T01:12:15;8.38;;;1.50;;
18082;SDS011;9168;51.194;6.840;2022-12-29T01:15:02;2.65;;;0.50;;
18082;SDS011;9168;51.194;6.840;2022-12-29T01:17:30;2.97;;;0.50;;
18082;SDS011;9168;51.194;6.840;2022-12-29T01:19:57;1.38;;;0.57;;
18082;SDS011;9168;51.194;6.840;2022-12-29T01:22:24;0.52;;;0.35;;
18082;SDS011;9168;51.194;6.840;2022-12-29T01:24:50;0.50;;;0.50;;
18082;SDS011;9168;51.194;6.840;2022-12-29T01:27:19;1.08;;;0.43;;
18082;SDS011;9168;51.194;6.840;2022-12-29T01:29:46;1.00;;;0.40;;
18082;SDS011;9168;51.194;6.840;2022-12-29T01:32:12;3.78;;;0.50;;
18082;SDS011;9168;51.194;6.840;2022-12-29T01:34:39;3.83;;;0.70;;
18082;SDS011;9168;51.194;6.840;2022-12-29T01:37:06;1.73;;;0.75;;
18082;SDS011;9168;51.194;6.840;2022-12-29T01:39:33;1.83;;;0.70;;
18082;SDS011;9168;51.194;6.840;2022-12-29T01:42:00;1.30;;;0.50;;
18082;SDS011;9168;51.194;6.840;2022-12-29T01:47:19;0.82;;;0.50;;
18082;SDS011;9168;51.194;6.840;2022-12-29T01:49:56;0.88;;;0.57;;
18082;SDS011;9168;51.194;6.840;2022-12-29T01:52:25;1.98;;;0.60;;
18082;SDS011;9168;51.194;6.840;2022-12-29T01:54:54;2.67;;;0.52;;
18082;SDS011;9168;51.194;6.840;2022-12-29T01:57:24;0.45;;;0.30;;
18082;SDS011;9168;51.194;6.840;2022-12-29T01:59:56;1.83;;;0.50;;
18082;SDS011;9168;51.194;6.840;2022-12-29T02:02:25;2.88;;;0.60;;
18082;SDS011;9168;51.194;6.840;2022-12-29T02:04:53;4.22;;;0.80;;
18082;SDS011;9168;51.194;6.840;2022-12-29T02:07:24;1.95;;;0.55;;
18082;SDS011;9168;51.194;6.840;2022-12-29T02:09:54;2.38;;;0.60;;
18082;SDS011;9168;51.194;6.840;2022-12-29T02:12:22;0.60;;;0.50;;
18082;SDS011;9168;51.194;6.840;2022-12-29T02:14:50;1.40;;;0.40;;
18082;SDS011;9168;51.194;6.840;2022-12-29T02:17:26;3.63;;;0.77;;
18082;SDS011;9168;51.194;6.840;2022-12-29T02:26:26;1.75;;;0.50;;
18082;SDS011;9168;51.194;6.840;2022-12-29T02:29:08;2.38;;;0.50;;
18082;SDS011;9168;51.194;6.840;2022-12-29T02:32:00;3.00;;;0.73;;
18082;SDS011;9168;51.194;6.840;2022-12-29T02:34:32;3.03;;;0.77;;
18082;SDS011;9168;51.194;6.840;2022-12-29T02:37:09;1.67;;;0.68;;
18082;SDS011;9168;51.194;6.840;2022-12-29T02:39:44;1.92;;;0.95;;
18082;SDS011;9168;51.194;6.840;2022-12-29T02:42:20;2.15;;;0.77;;
18082;SDS011;9168;51.194;6.840;2022-12-29T02:44:54;4.03;;;0.90;;
18082;SDS011;9168;51.194;6.840;2022-12-29T02:47:29;5.45;;;0.98;;
18082;SDS011;9168;51.194;6.840;2022-12-29T02:50:02;1.75;;;0.70;;
18082;SDS011;9168;51.194;6.840;2022-12-29T02:52:34;1.88;;;0.60;;
18082;SDS011;9168;51.194;6.840;2022-12-29T02:55:05;1.90;;;0.65;;
18082;SDS011;9168;51.194;6.840;2022-12-29T02:57:32;2.50;;;0.90;;
18082;SDS011;9168;51.194;6.840;2022-12-29T03:00:02;4.15;;;1.05;;
18082;SDS011;9168;51.194;6.840;2022-12-29T03:02:42;2.08;;;0.80;;
18082;SDS011;9168;51.194;6.840;2022-12-29T03:05:22;4.43;;;0.75;;
18082;SDS011;9168;51.194;6.840;2022-12-29T03:08:04;4.07;;;0.93;;
18082;SDS011;9168;51.194;6.840;2022-12-29T03:10:38;2.03;;;0.88;;
18082;SDS011;9168;51.194;6.840;2022-12-29T03:13:18;2.75;;;0.80;;
18082;SDS011;9168;51.194;6.840;2022-12-29T03:16:12;6.35;;;0.70;;
18082;SDS011;9168;51.194;6.840;2022-12-29T03:18:49;2.22;;;0.70;;
18082;SDS011;9168;51.194;6.840;2022-12-29T03:21:22;0.85;;;0.70;;
18082;SDS011;9168;51.194;6.840;2022-12-29T03:24:10;1.05;;;0.50;;
18082;SDS011;9168;51.194;6.840;2022-12-29T03:26:38;2.75;;;0.95;;
18082;SDS011;9168;51.194;6.840;2022-12-29T03:29:07;2.75;;;0.60;;
18082;SDS011;9168;51.194;6.840;2022-12-29T03:31:35;2.15;;;0.50;;
18082;SDS011;9168;51.194;6.840;2022-12-29T03:34:05;2.17;;;0.60;;
18082;SDS011;9168;51.194;6.840;2022-12-29T03:36:35;4.90;;;0.73;;
18082;SDS011;9168;51.194;6.840;2022-12-29T03:39:11;2.72;;;0.73;;
18082;SDS011;9168;51.194;6.840;2022-12-29T03:41:40;5.00;;;0.90;;
18082;SDS011;9168;51.194;6.840;2022-12-29T03:44:09;2.42;;;0.60;;
18082;SDS011;9168;51.194;6.840;2022-12-29T03:46:37;0.93;;;0.60;;
18082;SDS011;9168;51.194;6.840;2022-12-29T03:49:05;2.15;;;0.65;;
18082;SDS011;9168;51.194;6.840;2022-12-29T03:51:32;2.45;;;0.68;;
18082;SDS011;9168;51.194;6.840;2022-12-29T03:53:59;3.08;;;0.60;;
18082;SDS011;9168;51.194;6.840;2022-12-29T03:56:25;3.10;;;0.65;;
18082;SDS011;9168;51.194;6.840;2022-12-29T03:58:52;3.63;;;0.57;;
18082;SDS011;9168;51.194;6.840;2022-12-29T04:01:19;3.75;;;0.60;;
18082;SDS011;9168;51.194;6.840;2022-12-29T04:03:46;2.35;;;0.70;;
18082;SDS011;9168;51.194;6.840;2022-12-29T04:06:14;0.40;;;0.32;;
18082;SDS011;9168;51.194;6.840;2022-12-29T04:08:41;3.53;;;0.65;;
18082;SDS011;9168;51.194;6.840;2022-12-29T04:11:08;1.80;;;0.63;;
18082;SDS011;9168;51.194;6.840;2022-12-29T04:13:35;4.30;;;0.73;;
18082;SDS011;9168;51.194;6.840;2022-12-29T04:16:05;5.22;;;0.82;;
18082;SDS011;9168;51.194;6.840;2022-12-29T04:18:32;2.75;;;0.60;;
18082;SDS011;9168;51.194;6.840;2022-12-29T04:20:59;2.42;;;0.68;;
18082;SDS011;9168;51.194;6.840;2022-12-29T04:23:29;2.08;;;0.70;;
18082;SDS011;9168;51.194;6.840;2022-12-29T04:25:58;1.85;;;0.60;;
18082;SDS011;9168;51.194;6.840;2022-12-29T04:28:25;4.25;;;0.70;;
18082;SDS011;9168;51.194;6.840;2022-12-29T04:30:52;3.72;;;0.75;;
18082;SDS011;9168;51.194;6.840;2022-12-29T04:33:20;1.35;;;0.50;;
18082;SDS011;9168;51.194;6.840;2022-12-29T04:35:47;1.88;;;0.50;;
18082;SDS011;9168;51.194;6.840;2022-12-29T04:38:14;0.68;;;0.40;;
18082;SDS011;9168;51.194;6.840;2022-12-29T04:40:42;2.28;;;0.95;;
18082;SDS011;9168;51.194;6.840;2022-12-29T04:43:10;2.63;;;0.70;;
18082;SDS011;9168;51.194;6.840;2022-12-29T04:45:37;6.10;;;0.82;;
18082;SDS011;9168;51.194;6.840;2022-12-29T04:48:04;4.65;;;0.95;;
18082;SDS011;9168;51.194;6.840;2022-12-29T04:50:31;2.63;;;0.85;;
18082;SDS011;9168;51.194;6.840;2022-12-29T04:52:58;2.05;;;0.80;;
18082;SDS011;9168;51.194;6.840;2022-12-29T04:55:25;5.00;;;0.93;;
18082;SDS011;9168;51.194;6.840;2022-12-29T04:57:54;4.63;;;1.08;;
18082;SDS011;9168;51.194;6.840;2022-12-29T05:00:21;3.35;;;0.70;;
18082;SDS011;9168;51.194;6.840;2022-12-29T05:02:48;2.95;;;0.68;;
18082;SDS011;9168;51.194;6.840;2022-12-29T05:05:15;6.28;;;0.98;;
18082;SDS011;9168;51.194;6.840;2022-12-29T05:07:42;4.63;;;0.90;;
18082;SDS011;9168;51.194;6.840;2022-12-29T05:10:09;2.60;;;0.80;;
18082;SDS011;9168;51.194;6.840;2022-12-29T05:12:37;4.30;;;0.82;;
18082;SDS011;9168;51.194;6.840;2022-12-29T05:15:06;1.70;;;0.75;;
18082;SDS011;9168;51.194;6.840;2022-12-29T05:17:34;1.67;;;0.50;;
18082;SDS011;9168;51.194;6.840;2022-12-29T05:20:01;1.83;;;0.70;;
18082;SDS011;9168;51.194;6.840;2022-12-29T05:22:29;3.08;;;1.00;;
18082;SDS011;9168;51.194;6.840;2022-12-29T05:24:56;4.07;;;0.90;;
18082;SDS011;9168;51.194;6.840;2022-12-29T05:27:23;3.38;;;0.93;;
18082;SDS011;9168;51.194;6.840;2022-12-29T05:29:50;4.47;;;0.70;;
18082;SDS011;9168;51.194;6.840;2022-12-29T05:32:18;4.70;;;1.08;;
18082;SDS011;9168;51.194;6.840;2022-12-29T05:34:45;1.98;;;0.90;;
18082;SDS011;9168;51.194;6.840;2022-12-29T05:37:12;3.92;;;0.98;;
18082;SDS011;9168;51.194;6.840;2022-12-29T05:39:39;3.88;;;0.90;;
18082;SDS011;9168;51.194;6.840;2022-12-29T05:42:06;4.85;;;0.70;;
18082;SDS011;9168;51.194;6.840;2022-12-29T05:44:33;1.90;;;0.60;;
18082;SDS011;9168;51.194;6.840;2022-12-29T05:47:00;4.22;;;0.90;;
18082;SDS011;9168;51.194;6.840;2022-12-29T05:49:28;6.43;;;1.30;;
18082;SDS011;9168;51.194;6.840;2022-12-29T05:51:55;3.92;;;0.80;;
18082;SDS011;9168;51.194;6.840;2022-12-29T05:54:22;3.47;;;0.88;;
18082;SDS011;9168;51.194;6.840;2022-12-29T05:56:49;2.95;;;0.82;;
18082;SDS011;9168;51.194;6.840;2022-12-29T05:59:15;5.68;;;1.10;;
18082;SDS011;9168;51.194;6.840;2022-12-29T06:01:42;4.93;;;1.33;;
18082;SDS011;9168;51.194;6.840;2022-12-29T06:04:09;3.55;;;0.80;;
18082;SDS011;9168;51.194;6.840;2022-12-29T06:06:38;1.88;;;0.77;;
18082;SDS011;9168;51.194;6.840;2022-12-29T06:09:05;4.22;;;1.15;;
18082;SDS011;9168;51.194;6.840;2022-12-29T06:11:32;5.75;;;1.00;;
18082;SDS011;9168;51.194;6.840;2022-12-29T06:13:59;2.90;;;1.13;;
18082;SDS011;9168;51.194;6.840;2022-12-29T06:16:26;6.72;;;1.20;;
18082;SDS011;9168;51.194;6.840;2022-12-29T06:18:53;6.05;;;1.50;;
18082;SDS011;9168;51.194;6.840;2022-12-29T06:21:19;4.28;;;1.13;;
18082;SDS011;9168;51.194;6.840;2022-12-29T06:23:48;3.85;;;0.90;;
18082;SDS011;9168;51.194;6.840;2022-12-29T06:26:14;8.23;;;1.00;;
18082;SDS011;9168;51.194;6.840;2022-12-29T06:28:41;3.05;;;0.70;;
18082;SDS011;9168;51.194;6.840;2022-12-29T06:31:08;3.65;;;1.00;;
18082;SDS011;9168;51.194;6.840;2022-12-29T06:33:36;4.40;;;0.80;;
18082;SDS011;9168;51.194;6.840;2022-12-29T06:36:03;5.03;;;1.10;;
18082;SDS011;9168;51.194;6.840;2022-12-29T06:38:30;4.25;;;0.75;;
18082;SDS011;9168;51.194;6.840;2022-12-29T06:40:58;4.95;;;1.15;;
18082;SDS011;9168;51.194;6.840;2022-12-29T06:43:25;4.63;;;1.00;;
18082;SDS011;9168;51.194;6.840;2022-12-29T06:45:52;4.00;;;0.75;;
18082;SDS011;9168;51.194;6.840;2022-12-29T06:48:19;4.50;;;0.85;;
18082;SDS011;9168;51.194;6.840;2022-12-29T06:50:46;5.95;;;1.08;;
18082;SDS011;9168;51.194;6.840;2022-12-29T06:53:13;1.55;;;0.77;;
18082;SDS011;9168;51.194;6.840;2022-12-29T06:55:41;3.92;;;0.95;;
18082;SDS011;9168;51.194;6.840;2022-12-29T06:58:09;4.50;;;0.95;;
18082;SDS011;9168;51.194;6.840;2022-12-29T07:00:36;2.47;;;0.80;;
18082;SDS011;9168;51.194;6.840;2022-12-29T07:03:03;6.70;;;0.75;;
18082;SDS011;9168;51.194;6.840;2022-12-29T07:05:30;7.10;;;1.23;;
18082;SDS011;9168;51.194;6.840;2022-12-29T07:07:57;7.95;;;1.30;;
18082;SDS011;9168;51.194;6.840;2022-12-29T07:10:24;5.22;;;1.08;;
18082;SDS011;9168;51.194;6.840;2022-12-29T07:12:52;7.90;;;1.00;;
18082;SDS011;9168;51.194;6.840;2022-12-29T07:15:20;7.50;;;1.23;;
18082;SDS011;9168;51.194;6.840;2022-12-29T07:17:47;3.60;;;1.02;;
18082;SDS011;9168;51.194;6.840;2022-12-29T07:20:14;6.32;;;1.42;;
18082;SDS011;9168;51.194;6.840;2022-12-29T07:22:42;5.15;;;1.30;;
18082;SDS011;9168;51.194;6.840;2022-12-29T07:25:08;6.28;;;1.08;;
18082;SDS011;9168;51.194;6.840;2022-12-29T07:27:35;3.55;;;0.88;;
18082;SDS011;9168;51.194;6.840;2022-12-29T07:30:03;6.40;;;1.60;;
18082;SDS011;9168;51.194;6.840;2022-12-29T07:32:33;8.10;;;1.30;;
18082;SDS011;9168;51.194;6.840;2022-12-29T07:35:00;8.27;;;1.67;;
18082;SDS011;9168;51.194;6.840;2022-12-29T07:37:27;10.95;;;1.08;;
18082;SDS011;9168;51.194;6.840;2022-12-29T07:39:54;9.05;;;1.23;;
18082;SDS011;9168;51.194;6.840;2022-12-29T07:42:21;7.22;;;1.35;;
18082;SDS011;9168;51.194;6.840;2022-12-29T07:44:47;6.00;;;1.30;;
18082;SDS011;9168;51.194;6.840;2022-12-29T07:47:14;6.95;;;1.10;;
18082;SDS011;9168;51.194;6.840;2022-12-29T07:49:43;9.48;;;0.93;;
18082;SDS011;9168;51.194;6.840;2022-12-29T07:52:10;13.30;;;1.40;;
18082;SDS011;9168;51.194;6.840;2022-12-29T07:54:37;2.80;;;0.73;;
18082;SDS011;9168;51.194;6.840;2022-12-29T07:57:03;12.57;;;1.95;;
18082;SDS011;9168;51.194;6.840;2022-12-29T07:59:30;9.93;;;1.13;;
18082;SDS011;9168;51.194;6.840;2022-12-29T08:01:57;9.23;;;1.60;;
18082;SDS011;9168;51.194;6.840;2022-12-29T08:04:24;6.90;;;1.27;;
18082;SDS011;9168;51.194;6.840;2022-12-29T08:06:53;5.38;;;1.20;;
18082;SDS011;9168;51.194;6.840;2022-12-29T08:09:19;11.43;;;1.38;;
18082;SDS011;9168;51.194;6.840;2022-12-29T08:11:46;9.55;;;1.58;;
18082;SDS011;9168;51.194;6.840;2022-12-29T08:14:13;9.88;;;1.60;;
18082;SDS011;9168;51.194;6.840;2022-12-29T08:16:40;8.18;;;1.17;;
18082;SDS011;9168;51.194;6.840;2022-12-29T08:19:09;10.48;;;1.10;;
18082;SDS011;9168;51.194;6.840;2022-12-29T08:21:36;6.93;;;1.00;;
18082;SDS011;9168;51.194;6.840;2022-12-29T08:24:05;11.27;;;1.27;;
18082;SDS011;9168;51.194;6.840;2022-12-29T08:26:32;12.27;;;1.48;;
18082;SDS011;9168;51.194;6.840;2022-12-29T08:28:59;9.50;;;1.40;;
18082;SDS011;9168;51.194;6.840;2022-12-29T08:31:26;8.38;;;1.23;;
18082;SDS011;9168;51.194;6.840;2022-12-29T08:33:53;6.82;;;1.02;;
18082;SDS011;9168;51.194;6.840;2022-12-29T08:36:20;8.55;;;1.50;;
18082;SDS011;9168;51.194;6.840;2022-12-29T08:38:47;8.55;;;1.40;;
18082;SDS011;9168;51.194;6.840;2022-12-29T08:41:15;10.52;;;1.58;;
18082;SDS011;9168;51.194;6.840;2022-12-29T08:43:45;8.40;;;2.05;;
18082;SDS011;9168;51.194;6.840;2022-12-29T08:46:12;12.60;;;1.67;;
18082;SDS011;9168;51.194;6.840;2022-12-29T08:48:39;13.02;;;2.53;;
18082;SDS011;9168;51.194;6.840;2022-12-29T08:51:06;7.95;;;1.10;;
18082;SDS011;9168;51.194;6.840;2022-12-29T08:53:33;13.05;;;2.00;;
18082;SDS011;9168;51.194;6.840;2022-12-29T08:56:00;4.53;;;1.02;;
18082;SDS011;9168;51.194;6.840;2022-12-29T08:58:30;6.40;;;1.80;;
18082;SDS011;9168;51.194;6.840;2022-12-29T09:00:57;8.63;;;1.60;;
18082;SDS011;9168;51.194;6.840;2022-12-29T09:03:24;14.10;;;2.25;;
18082;SDS011;9168;51.194;6.840;2022-12-29T09:05:51;10.98;;;1.90;;
18082;SDS011;9168;51.194;6.840;2022-12-29T09:08:20;9.25;;;1.23;;
18082;SDS011;9168;51.194;6.840;2022-12-29T09:10:47;9.25;;;1.60;;
18082;SDS011;9168;51.194;6.840;2022-12-29T09:13:14;12.55;;;1.58;;
18082;SDS011;9168;51.194;6.840;2022-12-29T09:15:43;13.27;;;1.55;;
18082;SDS011;9168;51.194;6.840;2022-12-29T09:18:11;13.07;;;1.50;;
18082;SDS011;9168;51.194;6.840;2022-12-29T09:20:37;10.93;;;2.10;;
18082;SDS011;9168;51.194;6.840;2022-12-29T09:23:04;6.78;;;1.48;;
18082;SDS011;9168;51.194;6.840;2022-12-29T09:25:32;11.77;;;1.73;;
18082;SDS011;9168;51.194;6.840;2022-12-29T09:27:59;9.15;;;1.55;;
18082;SDS011;9168;51.194;6.840;2022-12-29T09:30:29;10.27;;;1.73;;
18082;SDS011;9168;51.194;6.840;2022-12-29T09:32:57;12.35;;;2.40;;
18082;SDS011;9168;51.194;6.840;2022-12-29T09:35:24;9.82;;;1.40;;
18082;SDS011;9168;51.194;6.840;2022-12-29T09:37:51;10.93;;;1.90;;
18082;SDS011;9168;51.194;6.840;2022-12-29T09:40:24;16.00;;;1.92;;
18082;SDS011;9168;51.194;6.840;2022-12-29T09:43:07;11.30;;;2.10;;
18082;SDS011;9168;51.194;6.840;2022-12-29T09:45:44;8.18;;;1.50;;
18082;SDS011;9168;51.194;6.840;2022-12-29T09:48:15;9.63;;;1.83;;
18082;SDS011;9168;51.194;6.840;2022-12-29T09:50:48;9.15;;;1.42;;
18082;SDS011;9168;51.194;6.840;2022-12-29T09:53:20;10.85;;;1.42;;
18082;SDS011;9168;51.194;6.840;2022-12-29T09:55:51;13.82;;;1.90;;
18082;SDS011;9168;51.194;6.840;2022-12-29T09:58:21;15.52;;;1.70;;
18082;SDS011;9168;51.194;6.840;2022-12-29T10:00:56;7.13;;;1.98;;
18082;SDS011;9168;51.194;6.840;2022-12-29T10:03:29;8.73;;;1.75;;
18082;SDS011;9168;51.194;6.840;2022-12-29T10:06:10;8.45;;;1.45;;
18082;SDS011;9168;51.194;6.840;2022-12-29T10:08:41;9.73;;;1.50;;
18082;SDS011;9168;51.194;6.840;2022-12-29T10:11:19;10.40;;;1.67;;
18082;SDS011;9168;51.194;6.840;2022-12-29T10:13:59;11.30;;;1.45;;
18082;SDS011;9168;51.194;6.840;2022-12-29T10:16:37;8.93;;;1.75;;
18082;SDS011;9168;51.194;6.840;2022-12-29T10:19:16;12.20;;;1.80;;
18082;SDS011;9168;51.194;6.840;2022-12-29T10:21:58;17.70;;;2.30;;
18082;SDS011;9168;51.194;6.840;2022-12-29T10:24:31;15.02;;;1.98;;
18082;SDS011;9168;51.194;6.840;2022-12-29T10:27:01;15.57;;;1.77;;
18082;SDS011;9168;51.194;6.840;2022-12-29T10:29:32;9.00;;;2.05;;
18082;SDS011;9168;51.194;6.840;2022-12-29T10:32:03;13.45;;;1.98;;
18082;SDS011;9168;51.194;6.840;2022-12-29T10:34:36;9.07;;;1.50;;
18082;SDS011;9168;51.194;6.840;2022-12-29T10:37:05;8.57;;;1.80;;
18082;SDS011;9168;51.194;6.840;2022-12-29T10:39:43;14.45;;;1.63;;
18082;SDS011;9168;51.194;6.840;2022-12-29T10:42:24;9.30;;;1.58;;
18082;SDS011;9168;51.194;6.840;2022-12-29T10:44:53;10.73;;;1.55;;
18082;SDS011;9168;51.194;6.840;2022-12-29T10:47:24;10.27;;;1.60;;
18082;SDS011;9168;51.194;6.840;2022-12-29T10:49:56;9.65;;;1.48;;
18082;SDS011;9168;51.194;6.840;2022-12-29T10:52:25;13.05;;;1.73;;
18082;SDS011;9168;51.194;6.840;2022-12-29T10:55:05;8.27;;;1.58;;
18082;SDS011;9168;51.194;6.840;2022-12-29T10:57:39;10.00;;;1.63;;
18082;SDS011;9168;51.194;6.840;2022-12-29T11:00:11;9.02;;;1.35;;
18082;SDS011;9168;51.194;6.840;2022-12-29T11:02:46;12.07;;;1.80;;
18082;SDS011;9168;51.194;6.840;2022-12-29T11:05:31;12.35;;;2.13;;
18082;SDS011;9168;51.194;6.840;2022-12-29T11:08:03;10.25;;;1.60;;
18082;SDS011;9168;51.194;6.840;2022-12-29T11:10:37;9.88;;;1.63;;
18082;SDS011;9168;51.194;6.840;2022-12-29T11:13:10;9.57;;;1.60;;
18082;SDS011;9168;51.194;6.840;2022-12-29T11:15:39;15.27;;;2.78;;
18082;SDS011;9168;51.194;6.840;2022-12-29T11:18:17;10.65;;;1.67;;
18082;SDS011;9168;51.194;6.840;2022-12-29T11:20:47;13.88;;;1.85;;
18082;SDS011;9168;51.194;6.840;2022-12-29T11:23:21;15.32;;;2.08;;
18082;SDS011;9168;51.194;6.840;2022-12-29T11:26:07;11.13;;;1.67;;
18082;SDS011;9168;51.194;6.840;2022-12-29T11:28:40;19.67;;;2.85;;
18082;SDS011;9168;51.194;6.840;2022-12-29T11:31:09;11.55;;;2.28;;
18082;SDS011;9168;51.194;6.840;2022-12-29T11:33:38;13.13;;;2.15;;
18082;SDS011;9168;51.194;6.840;2022-12-29T11:36:07;11.48;;;1.70;;
18082;SDS011;9168;51.194;6.840;2022-12-29T11:38:40;13.90;;;2.17;;
18082;SDS011;9168;51.194;6.840;2022-12-29T11:41:21;15.90;;;2.15;;
18082;SDS011;9168;51.194;6.840;2022-12-29T11:43:50;14.82;;;2.00;;
18082;SDS011;9168;51.194;6.840;2022-12-29T11:46:22;22.20;;;2.35;;
18082;SDS011;9168;51.194;6.840;2022-12-29T11:48:55;12.77;;;2.05;;
18082;SDS011;9168;51.194;6.840;2022-12-29T11:51:27;19.73;;;2.15;;
18082;SDS011;9168;51.194;6.840;2022-12-29T11:53:56;16.70;;;2.58;;
18082;SDS011;9168;51.194;6.840;2022-12-29T11:56:34;15.40;;;2.08;;
18082;SDS011;9168;51.194;6.840;2022-12-29T11:59:24;13.82;;;1.73;;
18082;SDS011;9168;51.194;6.840;2022-12-29T12:02:21;18.98;;;2.13;;
18082;SDS011;9168;51.194;6.840;2022-12-29T12:05:01;16.92;;;1.90;;
18082;SDS011;9168;51.194;6.840;2022-12-29T12:07:38;19.98;;;1.90;;
18082;SDS011;9168;51.194;6.840;2022-12-29T12:10:11;24.52;;;2.42;;
18082;SDS011;9168;51.194;6.840;2022-12-29T12:12:55;16.50;;;2.05;;
18082;SDS011;9168;51.194;6.840;2022-12-29T12:15:29;21.05;;;2.17;;
18082;SDS011;9168;51.194;6.840;2022-12-29T12:18:04;20.80;;;1.92;;
18082;SDS011;9168;51.194;6.840;2022-12-29T12:20:38;14.63;;;2.40;;
18082;SDS011;9168;51.194;6.840;2022-12-29T12:23:14;11.80;;;1.98;;
18082;SDS011;9168;51.194;6.840;2022-12-29T12:25:54;14.00;;;1.73;;
18082;SDS011;9168;51.194;6.840;2022-12-29T12:28:26;20.75;;;2.72;;
18082;SDS011;9168;51.194;6.840;2022-12-29T12:31:02;18.17;;;2.30;;
18082;SDS011;9168;51.194;6.840;2022-12-29T12:33:41;18.02;;;1.77;;
18082;SDS011;9168;51.194;6.840;2022-12-29T12:39:11;17.15;;;3.20;;
18082;SDS011;9168;51.194;6.840;2022-12-29T12:41:45;9.80;;;1.90;;
18082;SDS011;9168;51.194;6.840;2022-12-29T12:44:20;13.85;;;1.95;;
18082;SDS011;9168;51.194;6.840;2022-12-29T12:46:57;10.77;;;1.70;;
18082;SDS011;9168;51.194;6.840;2022-12-29T12:49:42;16.20;;;1.67;;
18082;SDS011;9168;51.194;6.840;2022-12-29T12:52:33;13.48;;;1.98;;
18082;SDS011;9168;51.194;6.840;2022-12-29T12:55:17;13.55;;;2.22;;
18082;SDS011;9168;51.194;6.840;2022-12-29T12:57:57;12.85;;;1.80;;
18082;SDS011;9168;51.194;6.840;2022-12-29T13:00:37;16.08;;;2.03;;
18082;SDS011;9168;51.194;6.840;2022-12-29T13:03:12;10.50;;;1.70;;
18082;SDS011;9168;51.194;6.840;2022-12-29T13:05:50;13.63;;;1.77;;
18082;SDS011;9168;51.194;6.840;2022-12-29T13:08:39;14.07;;;1.80;;
18082;SDS011;9168;51.194;6.840;2022-12-29T13:11:23;13.48;;;1.88;;
18082;SDS011;9168;51.194;6.840;2022-12-29T13:14:04;17.98;;;2.30;;
18082;SDS011;9168;51.194;6.840;2022-12-29T13:16:40;11.13;;;2.22;;
18082;SDS011;9168;51.194;6.840;2022-12-29T13:19:14;20.55;;;2.13;;
18082;SDS011;9168;51.194;6.840;2022-12-29T13:21:52;15.93;;;2.00;;
18082;SDS011;9168;51.194;6.840;2022-12-29T13:24:25;12.98;;;1.52;;
18082;SDS011;9168;51.194;6.840;2022-12-29T13:27:01;7.40;;;1.38;;
18082;SDS011;9168;51.194;6.840;2022-12-29T13:29:36;8.55;;;2.08;;
18082;SDS011;9168;51.194;6.840;2022-12-29T13:32:17;13.82;;;2.25;;
18082;SDS011;9168;51.194;6.840;2022-12-29T13:34:52;14.43;;;1.73;;
18082;SDS011;9168;51.194;6.840;2022-12-29T13:37:27;17.40;;;2.10;;
18082;SDS011;9168;51.194;6.840;2022-12-29T13:39:57;18.55;;;2.30;;
18082;SDS011;9168;51.194;6.840;2022-12-29T13:42:29;13.48;;;1.92;;
18082;SDS011;9168;51.194;6.840;2022-12-29T13:44:57;19.35;;;1.85;;
18082;SDS011;9168;51.194;6.840;2022-12-29T13:47:28;16.13;;;2.67;;
18082;SDS011;9168;51.194;6.840;2022-12-29T13:49:59;15.45;;;2.05;;
18082;SDS011;9168;51.194;6.840;2022-12-29T13:52:31;12.95;;;2.00;;
18082;SDS011;9168;51.194;6.840;2022-12-29T13:55:07;16.08;;;2.17;;
18082;SDS011;9168;51.194;6.840;2022-12-29T13:57:47;14.95;;;1.83;;
18082;SDS011;9168;51.194;6.840;2022-12-29T14:00:18;11.27;;;1.73;;
18082;SDS011;9168;51.194;6.840;2022-12-29T14:02:52;16.27;;;1.77;;
18082;SDS011;9168;51.194;6.840;2022-12-29T14:05:30;9.77;;;1.30;;
18082;SDS011;9168;51.194;6.840;2022-12-29T14:07:59;8.90;;;1.52;;
18082;SDS011;9168;51.194;6.840;2022-12-29T14:10:27;5.82;;;1.10;;
18082;SDS011;9168;51.194;6.840;2022-12-29T14:13:01;13.77;;;1.42;;
18082;SDS011;9168;51.194;6.840;2022-12-29T14:15:30;8.52;;;1.35;;
18082;SDS011;9168;51.194;6.840;2022-12-29T14:18:02;9.60;;;1.60;;
18082;SDS011;9168;51.194;6.840;2022-12-29T14:20:35;13.60;;;1.00;;
18082;SDS011;9168;51.194;6.840;2022-12-29T14:23:15;9.20;;;1.55;;
18082;SDS011;9168;51.194;6.840;2022-12-29T14:25:56;8.95;;;1.20;;
18082;SDS011;9168;51.194;6.840;2022-12-29T14:28:38;7.68;;;1.27;;
18082;SDS011;9168;51.194;6.840;2022-12-29T14:31:18;8.45;;;1.30;;
18082;SDS011;9168;51.194;6.840;2022-12-29T14:37:04;12.35;;;1.30;;
18082;SDS011;9168;51.194;6.840;2022-12-29T14:39:48;16.83;;;1.42;;
18082;SDS011;9168;51.194;6.840;2022-12-29T14:42:15;12.23;;;1.50;;
18082;SDS011;9168;51.194;6.840;2022-12-29T14:44:48;9.52;;;1.23;;
18082;SDS011;9168;51.194;6.840;2022-12-29T14:47:19;8.70;;;1.35;;
18082;SDS011;9168;51.194;6.840;2022-12-29T14:49:52;8.57;;;1.40;;
18082;SDS011;9168;51.194;6.840;2022-12-29T14:52:20;9.48;;;1.45;;
18082;SDS011;9168;51.194;6.840;2022-12-29T14:54:50;9.65;;;1.48;;
18082;SDS011;9168;51.194;6.840;2022-12-29T14:57:21;8.77;;;1.40;;
18082;SDS011;9168;51.194;6.840;2022-12-29T14:59:52;9.13;;;1.40;;
18082;SDS011;9168;51.194;6.840;2022-12-29T15:02:23;14.30;;;2.38;;
18082;SDS011;9168;51.194;6.840;2022-12-29T15:04:58;9.85;;;1.77;;
18082;SDS011;9168;51.194;6.840;2022-12-29T15:07:26;11.85;;;1.90;;
18082;SDS011;9168;51.194;6.840;2022-12-29T15:09:56;11.35;;;2.30;;
18082;SDS011;9168;51.194;6.840;2022-12-29T15:12:30;10.18;;;1.70;;
18082;SDS011;9168;51.194;6.840;2022-12-29T15:15:10;12.88;;;1.80;;
18082;SDS011;9168;51.194;6.840;2022-12-29T15:17:46;15.07;;;2.13;;
18082;SDS011;9168;51.194;6.840;2022-12-29T15:20:14;10.70;;;1.75;;
18082;SDS011;9168;51.194;6.840;2022-12-29T15:22:48;9.40;;;1.50;;
18082;SDS011;9168;51.194;6.840;2022-12-29T15:25:19;13.63;;;1.85;;
18082;SDS011;9168;51.194;6.840;2022-12-29T15:27:48;11.88;;;1.27;;
18082;SDS011;9168;51.194;6.840;2022-12-29T15:30:17;9.57;;;1.60;;
18082;SDS011;9168;51.194;6.840;2022-12-29T15:32:45;10.40;;;1.80;;
18082;SDS011;9168;51.194;6.840;2022-12-29T15:35:24;8.05;;;1.60;;
18082;SDS011;9168;51.194;6.840;2022-12-29T15:37:54;13.73;;;2.05;;